Terminal Aerodrome Forecast
Issued by NWS

Home | Current Version | Previous Version | Text Only | Print | Product List | Glossary On
Versions: 1 2 3 4 5 6 7 8 9 10 11 12 13 14 15 16 17
018
FTUS44 KEWX 222323
TAFSSF
TAF
KSSF 222323Z 2300/2324 13009KT P6SM FEW080 SCT250
     FM231100 13004KT P6SM SCT015
     FM231600 16008KT P6SM FEW050=

USA.gov is the U.S. government's official web portal to all federal, state and local government web resources and services.